sensor_id;sensor_type;location;lat;lon;timestamp;P1;durP1;ratioP1;P2;durP2;ratioP2
24064;SDS011;12258;50.940;5.330;2022-07-06T00:01:42;8.20;;;2.22;;
24064;SDS011;12258;50.940;5.330;2022-07-06T00:04:08;5.75;;;2.40;;
24064;SDS011;12258;50.940;5.330;2022-07-06T00:06:34;5.72;;;2.33;;
24064;SDS011;12258;50.940;5.330;2022-07-06T00:08:59;6.40;;;2.28;;
24064;SDS011;12258;50.940;5.330;2022-07-06T00:11:25;7.57;;;2.63;;
24064;SDS011;12258;50.940;5.330;2022-07-06T00:13:50;5.30;;;2.55;;
24064;SDS011;12258;50.940;5.330;2022-07-06T00:16:16;9.00;;;3.10;;
24064;SDS011;12258;50.940;5.330;2022-07-06T00:18:42;7.75;;;2.40;;
24064;SDS011;12258;50.940;5.330;2022-07-06T00:21:08;8.85;;;3.30;;
24064;SDS011;12258;50.940;5.330;2022-07-06T00:23:34;4.45;;;3.30;;
24064;SDS011;12258;50.940;5.330;2022-07-06T00:25:59;4.68;;;2.40;;
24064;SDS011;12258;50.940;5.330;2022-07-06T00:28:25;5.72;;;2.30;;
24064;SDS011;12258;50.940;5.330;2022-07-06T00:30:52;7.32;;;3.20;;
24064;SDS011;12258;50.940;5.330;2022-07-06T00:33:18;8.77;;;2.47;;
24064;SDS011;12258;50.940;5.330;2022-07-06T00:35:44;7.97;;;3.25;;
24064;SDS011;12258;50.940;5.330;2022-07-06T00:38:09;5.30;;;2.78;;
24064;SDS011;12258;50.940;5.330;2022-07-06T00:40:34;5.63;;;2.58;;
24064;SDS011;12258;50.940;5.330;2022-07-06T00:43:00;4.97;;;2.65;;
24064;SDS011;12258;50.940;5.330;2022-07-06T00:45:25;4.63;;;2.33;;
24064;SDS011;12258;50.940;5.330;2022-07-06T00:47:51;4.35;;;2.53;;
24064;SDS011;12258;50.940;5.330;2022-07-06T00:50:17;4.00;;;2.38;;
24064;SDS011;12258;50.940;5.330;2022-07-06T00:52:46;7.68;;;2.47;;
24064;SDS011;12258;50.940;5.330;2022-07-06T00:55:15;8.98;;;2.53;;
24064;SDS011;12258;50.940;5.330;2022-07-06T00:57:42;5.13;;;2.33;;
24064;SDS011;12258;50.940;5.330;2022-07-06T01:00:09;5.32;;;2.90;;
24064;SDS011;12258;50.940;5.330;2022-07-06T01:02:36;3.30;;;2.50;;
24064;SDS011;12258;50.940;5.330;2022-07-06T01:05:06;6.22;;;2.28;;
24064;SDS011;12258;50.940;5.330;2022-07-06T01:07:33;5.00;;;2.35;;
24064;SDS011;12258;50.940;5.330;2022-07-06T01:09:59;6.35;;;2.95;;
24064;SDS011;12258;50.940;5.330;2022-07-06T01:12:24;5.05;;;2.40;;
24064;SDS011;12258;50.940;5.330;2022-07-06T01:14:50;3.95;;;2.40;;
24064;SDS011;12258;50.940;5.330;2022-07-06T01:17:17;3.55;;;2.58;;
24064;SDS011;12258;50.940;5.330;2022-07-06T01:19:42;6.90;;;2.67;;
24064;SDS011;12258;50.940;5.330;2022-07-06T01:22:08;4.95;;;2.70;;
24064;SDS011;12258;50.940;5.330;2022-07-06T01:24:35;5.97;;;2.50;;
24064;SDS011;12258;50.940;5.330;2022-07-06T01:27:02;5.18;;;3.17;;
24064;SDS011;12258;50.940;5.330;2022-07-06T01:29:31;7.53;;;2.70;;
24064;SDS011;12258;50.940;5.330;2022-07-06T01:31:58;7.50;;;3.30;;
24064;SDS011;12258;50.940;5.330;2022-07-06T01:34:24;5.00;;;2.28;;
24064;SDS011;12258;50.940;5.330;2022-07-06T01:36:49;7.50;;;2.67;;
24064;SDS011;12258;50.940;5.330;2022-07-06T01:39:15;6.43;;;2.55;;
24064;SDS011;12258;50.940;5.330;2022-07-06T01:41:40;5.38;;;3.05;;
24064;SDS011;12258;50.940;5.330;2022-07-06T01:44:06;6.60;;;2.65;;
24064;SDS011;12258;50.940;5.330;2022-07-06T01:46:32;6.07;;;2.50;;
24064;SDS011;12258;50.940;5.330;2022-07-06T01:48:58;7.00;;;3.22;;
24064;SDS011;12258;50.940;5.330;2022-07-06T01:51:23;4.28;;;2.85;;
24064;SDS011;12258;50.940;5.330;2022-07-06T01:53:49;5.03;;;2.42;;
24064;SDS011;12258;50.940;5.330;2022-07-06T01:56:16;4.75;;;2.25;;
24064;SDS011;12258;50.940;5.330;2022-07-06T01:58:44;5.22;;;2.85;;
24064;SDS011;12258;50.940;5.330;2022-07-06T02:01:11;5.75;;;2.42;;
24064;SDS011;12258;50.940;5.330;2022-07-06T02:03:38;4.70;;;3.15;;
24064;SDS011;12258;50.940;5.330;2022-07-06T02:06:04;4.00;;;2.80;;
24064;SDS011;12258;50.940;5.330;2022-07-06T02:08:31;7.57;;;2.83;;
24064;SDS011;12258;50.940;5.330;2022-07-06T02:10:57;5.38;;;2.95;;
24064;SDS011;12258;50.940;5.330;2022-07-06T02:13:23;7.75;;;3.10;;
24064;SDS011;12258;50.940;5.330;2022-07-06T02:15:49;8.10;;;2.90;;
24064;SDS011;12258;50.940;5.330;2022-07-06T02:18:15;10.82;;;3.22;;
24064;SDS011;12258;50.940;5.330;2022-07-06T02:20:40;4.40;;;2.63;;
24064;SDS011;12258;50.940;5.330;2022-07-06T02:23:06;5.72;;;3.05;;
24064;SDS011;12258;50.940;5.330;2022-07-06T02:25:32;4.82;;;2.50;;
24064;SDS011;12258;50.940;5.330;2022-07-06T02:27:57;5.70;;;3.13;;
24064;SDS011;12258;50.940;5.330;2022-07-06T02:30:23;5.28;;;2.95;;
24064;SDS011;12258;50.940;5.330;2022-07-06T02:32:49;8.40;;;3.20;;
24064;SDS011;12258;50.940;5.330;2022-07-06T02:35:14;6.63;;;2.92;;
24064;SDS011;12258;50.940;5.330;2022-07-06T02:37:40;5.35;;;3.05;;
24064;SDS011;12258;50.940;5.330;2022-07-06T02:40:06;5.55;;;3.15;;
24064;SDS011;12258;50.940;5.330;2022-07-06T02:42:32;6.72;;;3.40;;
24064;SDS011;12258;50.940;5.330;2022-07-06T02:44:57;5.18;;;2.72;;
24064;SDS011;12258;50.940;5.330;2022-07-06T02:47:23;5.95;;;2.75;;
24064;SDS011;12258;50.940;5.330;2022-07-06T02:49:48;8.70;;;2.80;;
24064;SDS011;12258;50.940;5.330;2022-07-06T02:52:14;7.97;;;2.80;;
24064;SDS011;12258;50.940;5.330;2022-07-06T02:54:39;5.72;;;3.30;;
24064;SDS011;12258;50.940;5.330;2022-07-06T02:57:04;5.47;;;3.20;;
24064;SDS011;12258;50.940;5.330;2022-07-06T02:59:30;7.88;;;3.17;;
24064;SDS011;12258;50.940;5.330;2022-07-06T03:01:56;5.68;;;3.22;;
24064;SDS011;12258;50.940;5.330;2022-07-06T03:04:21;5.07;;;2.92;;
24064;SDS011;12258;50.940;5.330;2022-07-06T03:06:47;6.80;;;3.13;;
24064;SDS011;12258;50.940;5.330;2022-07-06T03:09:12;5.32;;;2.53;;
24064;SDS011;12258;50.940;5.330;2022-07-06T03:11:39;3.17;;;2.88;;
24064;SDS011;12258;50.940;5.330;2022-07-06T03:14:04;5.88;;;3.10;;
24064;SDS011;12258;50.940;5.330;2022-07-06T03:16:30;4.93;;;3.33;;
24064;SDS011;12258;50.940;5.330;2022-07-06T03:18:56;3.88;;;2.85;;
24064;SDS011;12258;50.940;5.330;2022-07-06T03:21:23;8.73;;;3.17;;
24064;SDS011;12258;50.940;5.330;2022-07-06T03:23:49;6.78;;;3.35;;
24064;SDS011;12258;50.940;5.330;2022-07-06T03:26:14;5.85;;;2.92;;
24064;SDS011;12258;50.940;5.330;2022-07-06T03:28:40;3.95;;;2.83;;
24064;SDS011;12258;50.940;5.330;2022-07-06T03:31:05;6.22;;;2.88;;
24064;SDS011;12258;50.940;5.330;2022-07-06T03:33:31;5.72;;;2.88;;
24064;SDS011;12258;50.940;5.330;2022-07-06T03:35:57;5.28;;;3.38;;
24064;SDS011;12258;50.940;5.330;2022-07-06T03:38:23;5.85;;;3.15;;
24064;SDS011;12258;50.940;5.330;2022-07-06T03:40:48;7.55;;;3.50;;
24064;SDS011;12258;50.940;5.330;2022-07-06T03:43:13;4.28;;;2.70;;
24064;SDS011;12258;50.940;5.330;2022-07-06T03:45:39;7.07;;;3.20;;
24064;SDS011;12258;50.940;5.330;2022-07-06T03:48:04;4.13;;;2.50;;
24064;SDS011;12258;50.940;5.330;2022-07-06T03:50:30;6.95;;;3.28;;
24064;SDS011;12258;50.940;5.330;2022-07-06T03:52:55;6.60;;;2.97;;
24064;SDS011;12258;50.940;5.330;2022-07-06T03:55:21;8.05;;;2.90;;
24064;SDS011;12258;50.940;5.330;2022-07-06T03:57:46;6.13;;;3.17;;
24064;SDS011;12258;50.940;5.330;2022-07-06T04:00:12;10.02;;;3.35;;
24064;SDS011;12258;50.940;5.330;2022-07-06T04:02:38;8.13;;;3.33;;
24064;SDS011;12258;50.940;5.330;2022-07-06T04:05:04;6.82;;;3.28;;
24064;SDS011;12258;50.940;5.330;2022-07-06T04:07:29;4.85;;;3.67;;
24064;SDS011;12258;50.940;5.330;2022-07-06T04:09:55;7.63;;;4.22;;
24064;SDS011;12258;50.940;5.330;2022-07-06T04:12:20;4.07;;;2.90;;
24064;SDS011;12258;50.940;5.330;2022-07-06T04:14:46;4.70;;;3.10;;
24064;SDS011;12258;50.940;5.330;2022-07-06T04:17:12;5.53;;;3.13;;
24064;SDS011;12258;50.940;5.330;2022-07-06T04:19:56;6.47;;;3.50;;
24064;SDS011;12258;50.940;5.330;2022-07-06T04:22:22;5.47;;;4.03;;
24064;SDS011;12258;50.940;5.330;2022-07-06T04:24:48;5.63;;;3.78;;
24064;SDS011;12258;50.940;5.330;2022-07-06T04:27:13;5.82;;;3.58;;
24064;SDS011;12258;50.940;5.330;2022-07-06T04:29:39;5.20;;;2.83;;
24064;SDS011;12258;50.940;5.330;2022-07-06T04:32:05;6.15;;;3.80;;
24064;SDS011;12258;50.940;5.330;2022-07-06T04:34:32;7.13;;;3.38;;
24064;SDS011;12258;50.940;5.330;2022-07-06T04:36:57;9.57;;;4.40;;
24064;SDS011;12258;50.940;5.330;2022-07-06T04:39:23;6.30;;;3.80;;
24064;SDS011;12258;50.940;5.330;2022-07-06T04:41:48;4.25;;;3.47;;
24064;SDS011;12258;50.940;5.330;2022-07-06T04:44:14;8.98;;;4.20;;
24064;SDS011;12258;50.940;5.330;2022-07-06T04:46:39;6.07;;;4.47;;
24064;SDS011;12258;50.940;5.330;2022-07-06T04:49:05;11.88;;;5.35;;
24064;SDS011;12258;50.940;5.330;2022-07-06T04:51:31;9.70;;;5.15;;
24064;SDS011;12258;50.940;5.330;2022-07-06T04:53:57;7.13;;;3.85;;
24064;SDS011;12258;50.940;5.330;2022-07-06T04:56:22;8.60;;;4.63;;
24064;SDS011;12258;50.940;5.330;2022-07-06T04:58:48;8.95;;;5.03;;
24064;SDS011;12258;50.940;5.330;2022-07-06T05:01:13;9.07;;;4.93;;
24064;SDS011;12258;50.940;5.330;2022-07-06T05:03:38;11.63;;;6.07;;
24064;SDS011;12258;50.940;5.330;2022-07-06T05:06:06;7.35;;;4.90;;
24064;SDS011;12258;50.940;5.330;2022-07-06T05:08:32;9.77;;;5.75;;
24064;SDS011;12258;50.940;5.330;2022-07-06T05:10:58;15.45;;;5.97;;
24064;SDS011;12258;50.940;5.330;2022-07-06T05:13:24;8.57;;;5.80;;
24064;SDS011;12258;50.940;5.330;2022-07-06T05:15:49;11.13;;;6.07;;
24064;SDS011;12258;50.940;5.330;2022-07-06T05:18:15;9.05;;;5.38;;
24064;SDS011;12258;50.940;5.330;2022-07-06T05:20:40;12.57;;;5.95;;
24064;SDS011;12258;50.940;5.330;2022-07-06T05:23:06;7.18;;;5.18;;
24064;SDS011;12258;50.940;5.330;2022-07-06T05:25:31;9.23;;;5.72;;
24064;SDS011;12258;50.940;5.330;2022-07-06T05:27:58;7.20;;;5.45;;
24064;SDS011;12258;50.940;5.330;2022-07-06T05:30:24;14.55;;;6.82;;
24064;SDS011;12258;50.940;5.330;2022-07-06T05:32:50;9.40;;;5.70;;
24064;SDS011;12258;50.940;5.330;2022-07-06T05:35:15;10.48;;;5.82;;
24064;SDS011;12258;50.940;5.330;2022-07-06T05:37:41;9.25;;;6.03;;
24064;SDS011;12258;50.940;5.330;2022-07-06T05:40:07;15.15;;;7.00;;
24064;SDS011;12258;50.940;5.330;2022-07-06T05:42:32;13.20;;;6.75;;
24064;SDS011;12258;50.940;5.330;2022-07-06T05:44:58;10.00;;;6.35;;
24064;SDS011;12258;50.940;5.330;2022-07-06T05:47:24;14.70;;;6.80;;
24064;SDS011;12258;50.940;5.330;2022-07-06T05:50:08;10.30;;;6.13;;
24064;SDS011;12258;50.940;5.330;2022-07-06T05:52:44;15.98;;;6.88;;
24064;SDS011;12258;50.940;5.330;2022-07-06T05:55:19;9.50;;;5.97;;
24064;SDS011;12258;50.940;5.330;2022-07-06T05:57:45;16.70;;;6.20;;
24064;SDS011;12258;50.940;5.330;2022-07-06T06:00:10;12.32;;;6.43;;
24064;SDS011;12258;50.940;5.330;2022-07-06T06:02:39;12.68;;;5.65;;
24064;SDS011;12258;50.940;5.330;2022-07-06T06:05:09;12.00;;;5.10;;
24064;SDS011;12258;50.940;5.330;2022-07-06T06:07:36;9.27;;;5.07;;
24064;SDS011;12258;50.940;5.330;2022-07-06T06:10:03;15.77;;;4.43;;
24064;SDS011;12258;50.940;5.330;2022-07-06T06:12:30;8.50;;;4.75;;
24064;SDS011;12258;50.940;5.330;2022-07-06T06:14:56;10.65;;;4.70;;
24064;SDS011;12258;50.940;5.330;2022-07-06T06:17:21;8.70;;;4.10;;
24064;SDS011;12258;50.940;5.330;2022-07-06T06:19:47;6.85;;;4.25;;
24064;SDS011;12258;50.940;5.330;2022-07-06T06:22:13;14.02;;;4.40;;
24064;SDS011;12258;50.940;5.330;2022-07-06T06:24:39;6.20;;;3.92;;
24064;SDS011;12258;50.940;5.330;2022-07-06T06:27:04;8.93;;;4.65;;
24064;SDS011;12258;50.940;5.330;2022-07-06T06:29:30;4.50;;;2.63;;
24064;SDS011;12258;50.940;5.330;2022-07-06T06:31:55;5.68;;;3.08;;
24064;SDS011;12258;50.940;5.330;2022-07-06T06:34:21;7.38;;;4.00;;
24064;SDS011;12258;50.940;5.330;2022-07-06T06:36:47;11.80;;;3.83;;
24064;SDS011;12258;50.940;5.330;2022-07-06T06:39:13;8.13;;;3.95;;
24064;SDS011;12258;50.940;5.330;2022-07-06T06:41:38;8.82;;;3.90;;
24064;SDS011;12258;50.940;5.330;2022-07-06T06:44:04;10.60;;;4.72;;
24064;SDS011;12258;50.940;5.330;2022-07-06T06:46:29;7.75;;;3.50;;
24064;SDS011;12258;50.940;5.330;2022-07-06T06:48:55;9.63;;;3.92;;
24064;SDS011;12258;50.940;5.330;2022-07-06T06:51:20;9.40;;;3.65;;
24064;SDS011;12258;50.940;5.330;2022-07-06T06:53:46;9.27;;;3.40;;
24064;SDS011;12258;50.940;5.330;2022-07-06T06:56:12;4.20;;;2.92;;
24064;SDS011;12258;50.940;5.330;2022-07-06T06:58:38;7.53;;;3.42;;
24064;SDS011;12258;50.940;5.330;2022-07-06T07:01:04;12.85;;;3.55;;
24064;SDS011;12258;50.940;5.330;2022-07-06T07:03:29;9.73;;;3.40;;
24064;SDS011;12258;50.940;5.330;2022-07-06T07:05:55;9.93;;;3.92;;
24064;SDS011;12258;50.940;5.330;2022-07-06T07:08:21;7.78;;;3.28;;
24064;SDS011;12258;50.940;5.330;2022-07-06T07:10:46;6.50;;;2.65;;
24064;SDS011;12258;50.940;5.330;2022-07-06T07:13:12;5.88;;;2.53;;
24064;SDS011;12258;50.940;5.330;2022-07-06T07:15:37;6.30;;;2.38;;
24064;SDS011;12258;50.940;5.330;2022-07-06T07:18:03;4.85;;;1.95;;
24064;SDS011;12258;50.940;5.330;2022-07-06T07:20:29;6.10;;;2.20;;
24064;SDS011;12258;50.940;5.330;2022-07-06T07:22:55;6.22;;;2.08;;
24064;SDS011;12258;50.940;5.330;2022-07-06T07:25:22;9.65;;;3.00;;
24064;SDS011;12258;50.940;5.330;2022-07-06T07:27:47;7.65;;;2.45;;
24064;SDS011;12258;50.940;5.330;2022-07-06T07:30:13;7.28;;;2.15;;
24064;SDS011;12258;50.940;5.330;2022-07-06T07:32:39;17.48;;;2.45;;
24064;SDS011;12258;50.940;5.330;2022-07-06T07:35:05;5.38;;;2.40;;
24064;SDS011;12258;50.940;5.330;2022-07-06T07:37:31;10.48;;;2.50;;
24064;SDS011;12258;50.940;5.330;2022-07-06T07:39:57;7.13;;;2.60;;
24064;SDS011;12258;50.940;5.330;2022-07-06T07:42:23;4.40;;;1.90;;
24064;SDS011;12258;50.940;5.330;2022-07-06T07:44:48;4.95;;;1.50;;
24064;SDS011;12258;50.940;5.330;2022-07-06T07:47:14;5.50;;;1.60;;
24064;SDS011;12258;50.940;5.330;2022-07-06T07:49:40;2.28;;;1.67;;
24064;SDS011;12258;50.940;5.330;2022-07-06T07:52:05;4.00;;;1.50;;
24064;SDS011;12258;50.940;5.330;2022-07-06T07:54:31;3.17;;;1.73;;
24064;SDS011;12258;50.940;5.330;2022-07-06T07:56:56;18.73;;;2.00;;
24064;SDS011;12258;50.940;5.330;2022-07-06T07:59:22;11.00;;;2.17;;
24064;SDS011;12258;50.940;5.330;2022-07-06T08:01:48;5.05;;;1.05;;
24064;SDS011;12258;50.940;5.330;2022-07-06T08:04:13;2.60;;;1.02;;
24064;SDS011;12258;50.940;5.330;2022-07-06T08:06:39;3.88;;;1.20;;
24064;SDS011;12258;50.940;5.330;2022-07-06T08:09:04;3.50;;;1.30;;
24064;SDS011;12258;50.940;5.330;2022-07-06T08:11:32;2.47;;;0.98;;
24064;SDS011;12258;50.940;5.330;2022-07-06T08:13:58;6.57;;;1.13;;
24064;SDS011;12258;50.940;5.330;2022-07-06T08:16:23;4.43;;;1.10;;
24064;SDS011;12258;50.940;5.330;2022-07-06T08:18:49;1.77;;;0.70;;
24064;SDS011;12258;50.940;5.330;2022-07-06T08:21:14;3.30;;;1.00;;
24064;SDS011;12258;50.940;5.330;2022-07-06T08:23:40;2.13;;;0.73;;
24064;SDS011;12258;50.940;5.330;2022-07-06T08:26:06;5.03;;;0.95;;
24064;SDS011;12258;50.940;5.330;2022-07-06T08:28:31;3.55;;;1.35;;
24064;SDS011;12258;50.940;5.330;2022-07-06T08:30:57;2.83;;;0.88;;
24064;SDS011;12258;50.940;5.330;2022-07-06T08:33:22;4.03;;;1.13;;
24064;SDS011;12258;50.940;5.330;2022-07-06T08:35:48;2.63;;;1.00;;
24064;SDS011;12258;50.940;5.330;2022-07-06T08:38:13;1.60;;;0.90;;
24064;SDS011;12258;50.940;5.330;2022-07-06T08:40:40;2.53;;;1.13;;
24064;SDS011;12258;50.940;5.330;2022-07-06T08:43:08;6.72;;;1.02;;
24064;SDS011;12258;50.940;5.330;2022-07-06T08:45:34;3.33;;;0.60;;
24064;SDS011;12258;50.940;5.330;2022-07-06T08:48:04;2.78;;;0.95;;
24064;SDS011;12258;50.940;5.330;2022-07-06T08:50:31;2.58;;;0.80;;
24064;SDS011;12258;50.940;5.330;2022-07-06T08:52:57;2.83;;;0.80;;
24064;SDS011;12258;50.940;5.330;2022-07-06T08:55:24;1.85;;;0.60;;
24064;SDS011;12258;50.940;5.330;2022-07-06T08:57:50;2.33;;;0.60;;
24064;SDS011;12258;50.940;5.330;2022-07-06T09:00:17;2.72;;;0.70;;
24064;SDS011;12258;50.940;5.330;2022-07-06T09:02:43;2.25;;;0.75;;
24064;SDS011;12258;50.940;5.330;2022-07-06T09:05:08;1.17;;;0.70;;
24064;SDS011;12258;50.940;5.330;2022-07-06T09:07:40;5.18;;;0.82;;
24064;SDS011;12258;50.940;5.330;2022-07-06T09:10:07;3.78;;;0.80;;
24064;SDS011;12258;50.940;5.330;2022-07-06T09:12:33;1.95;;;0.68;;
24064;SDS011;12258;50.940;5.330;2022-07-06T09:14:58;2.10;;;0.85;;
24064;SDS011;12258;50.940;5.330;2022-07-06T09:17:25;3.05;;;0.80;;
24064;SDS011;12258;50.940;5.330;2022-07-06T09:19:52;2.05;;;0.80;;
24064;SDS011;12258;50.940;5.330;2022-07-06T09:22:29;4.10;;;0.98;;
24064;SDS011;12258;50.940;5.330;2022-07-06T09:25:01;2.80;;;0.77;;
24064;SDS011;12258;50.940;5.330;2022-07-06T09:27:31;3.42;;;1.02;;
24064;SDS011;12258;50.940;5.330;2022-07-06T09:29:59;2.13;;;0.80;;
24064;SDS011;12258;50.940;5.330;2022-07-06T09:32:26;1.17;;;0.60;;
24064;SDS011;12258;50.940;5.330;2022-07-06T09:34:51;2.35;;;0.73;;
24064;SDS011;12258;50.940;5.330;2022-07-06T09:37:17;2.53;;;1.00;;
24064;SDS011;12258;50.940;5.330;2022-07-06T09:39:43;1.83;;;0.80;;
24064;SDS011;12258;50.940;5.330;2022-07-06T09:42:09;3.90;;;1.13;;
24064;SDS011;12258;50.940;5.330;2022-07-06T09:44:36;3.22;;;0.80;;
24064;SDS011;12258;50.940;5.330;2022-07-06T09:47:04;2.42;;;1.00;;
24064;SDS011;12258;50.940;5.330;2022-07-06T09:49:31;4.25;;;0.98;;
24064;SDS011;12258;50.940;5.330;2022-07-06T09:51:58;5.25;;;1.23;;
24064;SDS011;12258;50.940;5.330;2022-07-06T09:54:25;3.42;;;1.02;;
24064;SDS011;12258;50.940;5.330;2022-07-06T09:56:52;2.45;;;1.00;;
24064;SDS011;12258;50.940;5.330;2022-07-06T09:59:20;4.45;;;1.40;;
24064;SDS011;12258;50.940;5.330;2022-07-06T10:01:59;3.70;;;1.20;;
24064;SDS011;12258;50.940;5.330;2022-07-06T10:04:26;3.50;;;1.38;;
24064;SDS011;12258;50.940;5.330;2022-07-06T10:06:53;3.03;;;1.20;;
24064;SDS011;12258;50.940;5.330;2022-07-06T10:09:21;2.20;;;1.00;;
24064;SDS011;12258;50.940;5.330;2022-07-06T10:11:53;3.03;;;1.00;;
24064;SDS011;12258;50.940;5.330;2022-07-06T10:14:21;3.35;;;1.30;;
24064;SDS011;12258;50.940;5.330;2022-07-06T10:16:49;4.60;;;1.30;;
24064;SDS011;12258;50.940;5.330;2022-07-06T10:19:15;1.65;;;1.00;;
24064;SDS011;12258;50.940;5.330;2022-07-06T10:21:43;3.03;;;1.10;;
24064;SDS011;12258;50.940;5.330;2022-07-06T10:24:10;2.28;;;1.17;;
24064;SDS011;12258;50.940;5.330;2022-07-06T10:26:37;4.07;;;1.02;;
24064;SDS011;12258;50.940;5.330;2022-07-06T10:29:03;5.72;;;1.33;;
24064;SDS011;12258;50.940;5.330;2022-07-06T10:31:30;2.35;;;1.33;;
24064;SDS011;12258;50.940;5.330;2022-07-06T10:33:57;5.65;;;1.20;;
24064;SDS011;12258;50.940;5.330;2022-07-06T10:36:25;6.32;;;1.33;;
24064;SDS011;12258;50.940;5.330;2022-07-06T10:38:51;2.20;;;1.10;;
24064;SDS011;12258;50.940;5.330;2022-07-06T10:41:18;2.75;;;0.98;;
24064;SDS011;12258;50.940;5.330;2022-07-06T10:43:55;2.65;;;1.05;;
24064;SDS011;12258;50.940;5.330;2022-07-06T10:46:22;3.28;;;0.77;;
24064;SDS011;12258;50.940;5.330;2022-07-06T10:48:52;3.63;;;1.10;;
24064;SDS011;12258;50.940;5.330;2022-07-06T10:51:24;7.75;;;1.48;;
24064;SDS011;12258;50.940;5.330;2022-07-06T10:53:59;17.55;;;1.63;;
24064;SDS011;12258;50.940;5.330;2022-07-06T10:56:35;3.00;;;1.00;;
24064;SDS011;12258;50.940;5.330;2022-07-06T10:59:09;3.90;;;1.65;;
24064;SDS011;12258;50.940;5.330;2022-07-06T11:01:36;2.53;;;1.15;;
24064;SDS011;12258;50.940;5.330;2022-07-06T11:06:31;4.43;;;1.58;;
24064;SDS011;12258;50.940;5.330;2022-07-06T11:16:32;6.00;;;1.23;;
24064;SDS011;12258;50.940;5.330;2022-07-06T11:24:30;2.45;;;1.10;;
24064;SDS011;12258;50.940;5.330;2022-07-06T11:26:57;3.33;;;1.10;;
24064;SDS011;12258;50.940;5.330;2022-07-06T11:29:24;5.75;;;1.35;;
24064;SDS011;12258;50.940;5.330;2022-07-06T11:31:52;5.38;;;1.48;;
24064;SDS011;12258;50.940;5.330;2022-07-06T11:34:23;2.78;;;1.20;;
24064;SDS011;12258;50.940;5.330;2022-07-06T11:37:01;2.72;;;1.30;;
24064;SDS011;12258;50.940;5.330;2022-07-06T11:39:29;3.33;;;1.10;;
24064;SDS011;12258;50.940;5.330;2022-07-06T11:41:56;6.93;;;1.38;;
24064;SDS011;12258;50.940;5.330;2022-07-06T11:44:22;5.53;;;1.40;;
24064;SDS011;12258;50.940;5.330;2022-07-06T11:46:48;3.47;;;1.00;;
24064;SDS011;12258;50.940;5.330;2022-07-06T11:49:14;4.88;;;1.10;;
24064;SDS011;12258;50.940;5.330;2022-07-06T11:51:40;4.35;;;1.20;;
24064;SDS011;12258;50.940;5.330;2022-07-06T11:54:08;6.00;;;1.30;;
24064;SDS011;12258;50.940;5.330;2022-07-06T11:56:36;3.25;;;1.60;;
24064;SDS011;12258;50.940;5.330;2022-07-06T11:59:02;3.70;;;1.20;;
24064;SDS011;12258;50.940;5.330;2022-07-06T12:01:29;2.28;;;1.05;;
24064;SDS011;12258;50.940;5.330;2022-07-06T12:03:59;4.40;;;1.55;;
24064;SDS011;12258;50.940;5.330;2022-07-06T12:06:28;4.57;;;0.90;;
24064;SDS011;12258;50.940;5.330;2022-07-06T12:08:56;4.30;;;1.20;;
24064;SDS011;12258;50.940;5.330;2022-07-06T12:11:27;4.13;;;1.17;;
24064;SDS011;12258;50.940;5.330;2022-07-06T12:13:55;5.65;;;1.30;;
24064;SDS011;12258;50.940;5.330;2022-07-06T12:16:30;2.92;;;1.30;;
24064;SDS011;12258;50.940;5.330;2022-07-06T12:18:59;2.50;;;1.23;;
24064;SDS011;12258;50.940;5.330;2022-07-06T12:21:26;4.72;;;1.50;;
24064;SDS011;12258;50.940;5.330;2022-07-06T12:23:52;3.58;;;1.20;;
24064;SDS011;12258;50.940;5.330;2022-07-06T12:26:20;3.55;;;0.82;;
24064;SDS011;12258;50.940;5.330;2022-07-06T12:29:07;2.63;;;1.58;;
24064;SDS011;12258;50.940;5.330;2022-07-06T12:31:51;5.25;;;1.92;;
24064;SDS011;12258;50.940;5.330;2022-07-06T12:34:25;4.57;;;1.10;;
24064;SDS011;12258;50.940;5.330;2022-07-06T12:36:53;3.30;;;1.17;;
24064;SDS011;12258;50.940;5.330;2022-07-06T12:39:21;2.75;;;1.10;;
24064;SDS011;12258;50.940;5.330;2022-07-06T12:44:15;7.35;;;2.38;;
24064;SDS011;12258;50.940;5.330;2022-07-06T12:46:45;2.53;;;1.08;;
24064;SDS011;12258;50.940;5.330;2022-07-06T12:49:19;3.97;;;1.10;;
24064;SDS011;12258;50.940;5.330;2022-07-06T12:51:48;4.78;;;1.23;;
24064;SDS011;12258;50.940;5.330;2022-07-06T12:54:14;3.40;;;0.95;;
24064;SDS011;12258;50.940;5.330;2022-07-06T12:56:58;3.50;;;1.27;;
24064;SDS011;12258;50.940;5.330;2022-07-06T12:59:41;2.35;;;1.20;;
24064;SDS011;12258;50.940;5.330;2022-07-06T13:02:09;2.40;;;1.40;;
24064;SDS011;12258;50.940;5.330;2022-07-06T13:04:43;6.10;;;1.30;;
24064;SDS011;12258;50.940;5.330;2022-07-06T13:07:15;2.75;;;1.35;;
24064;SDS011;12258;50.940;5.330;2022-07-06T13:09:44;3.13;;;1.10;;
24064;SDS011;12258;50.940;5.330;2022-07-06T13:12:10;4.70;;;1.13;;
24064;SDS011;12258;50.940;5.330;2022-07-06T13:14:36;4.70;;;1.40;;
24064;SDS011;12258;50.940;5.330;2022-07-06T13:17:01;4.70;;;1.58;;
24064;SDS011;12258;50.940;5.330;2022-07-06T13:19:27;4.20;;;1.55;;
24064;SDS011;12258;50.940;5.330;2022-07-06T13:21:53;3.92;;;1.33;;
24064;SDS011;12258;50.940;5.330;2022-07-06T13:24:20;2.72;;;1.50;;
24064;SDS011;12258;50.940;5.330;2022-07-06T13:26:45;6.70;;;1.40;;
24064;SDS011;12258;50.940;5.330;2022-07-06T13:29:11;8.02;;;1.70;;
24064;SDS011;12258;50.940;5.330;2022-07-06T13:31:38;4.25;;;1.40;;
24064;SDS011;12258;50.940;5.330;2022-07-06T13:34:05;4.13;;;1.30;;
24064;SDS011;12258;50.940;5.330;2022-07-06T13:36:32;4.53;;;1.73;;
24064;SDS011;12258;50.940;5.330;2022-07-06T13:38:58;7.55;;;2.13;;
24064;SDS011;12258;50.940;5.330;2022-07-06T13:41:23;6.90;;;1.70;;
24064;SDS011;12258;50.940;5.330;2022-07-06T13:43:49;3.78;;;1.73;;
24064;SDS011;12258;50.940;5.330;2022-07-06T13:46:15;3.90;;;1.20;;
24064;SDS011;12258;50.940;5.330;2022-07-06T13:48:41;2.42;;;1.25;;
24064;SDS011;12258;50.940;5.330;2022-07-06T13:51:07;4.28;;;1.73;;
24064;SDS011;12258;50.940;5.330;2022-07-06T13:53:33;3.55;;;1.35;;
24064;SDS011;12258;50.940;5.330;2022-07-06T13:56:00;4.13;;;1.50;;
24064;SDS011;12258;50.940;5.330;2022-07-06T13:58:26;4.75;;;1.70;;
24064;SDS011;12258;50.940;5.330;2022-07-06T14:00:51;4.68;;;1.58;;
24064;SDS011;12258;50.940;5.330;2022-07-06T14:03:17;4.22;;;1.55;;
24064;SDS011;12258;50.940;5.330;2022-07-06T14:05:43;8.00;;;1.35;;
24064;SDS011;12258;50.940;5.330;2022-07-06T14:08:08;3.70;;;1.40;;
24064;SDS011;12258;50.940;5.330;2022-07-06T14:10:34;4.22;;;1.27;;
24064;SDS011;12258;50.940;5.330;2022-07-06T14:12:59;2.85;;;1.60;;
24064;SDS011;12258;50.940;5.330;2022-07-06T14:15:25;3.30;;;1.80;;
24064;SDS011;12258;50.940;5.330;2022-07-06T14:17:51;11.25;;;1.75;;
24064;SDS011;12258;50.940;5.330;2022-07-06T14:20:16;2.72;;;1.60;;
24064;SDS011;12258;50.940;5.330;2022-07-06T14:22:43;6.38;;;1.55;;
24064;SDS011;12258;50.940;5.330;2022-07-06T14:25:09;3.50;;;1.80;;
24064;SDS011;12258;50.940;5.330;2022-07-06T14:27:35;5.88;;;1.67;;
24064;SDS011;12258;50.940;5.330;2022-07-06T14:30:01;6.20;;;1.70;;
24064;SDS011;12258;50.940;5.330;2022-07-06T14:32:28;3.92;;;2.05;;
24064;SDS011;12258;50.940;5.330;2022-07-06T14:34:54;2.63;;;1.25;;
24064;SDS011;12258;50.940;5.330;2022-07-06T14:37:19;3.17;;;1.55;;
24064;SDS011;12258;50.940;5.330;2022-07-06T14:39:45;4.10;;;1.50;;
24064;SDS011;12258;50.940;5.330;2022-07-06T14:42:11;3.25;;;1.42;;
24064;SDS011;12258;50.940;5.330;2022-07-06T14:44:37;4.72;;;1.60;;
24064;SDS011;12258;50.940;5.330;2022-07-06T14:47:03;5.75;;;1.75;;
24064;SDS011;12258;50.940;5.330;2022-07-06T14:49:29;3.90;;;1.48;;
24064;SDS011;12258;50.940;5.330;2022-07-06T14:51:55;4.25;;;1.27;;
24064;SDS011;12258;50.940;5.330;2022-07-06T14:54:22;9.38;;;2.15;;
24064;SDS011;12258;50.940;5.330;2022-07-06T14:56:48;9.05;;;1.95;;
24064;SDS011;12258;50.940;5.330;2022-07-06T14:59:14;5.40;;;1.40;;
24064;SDS011;12258;50.940;5.330;2022-07-06T15:01:39;3.72;;;1.50;;